Time;durP1;ratioP1;P1;durP2;ratioP2;P2;SDS_P1;SDS_P2;PMS_P1;PMS_P2;Temp;Humidity;BMP_temperature;BMP_pressure;BME280_temperature;BME280_humidity;BME280_pressure;Samples;Min_cycle;Max_cycle;Signal;HPM_P1;HPM_P2
2022/08/10 00:02:38;;;;;;;62.33;51.35;;;26.10;52.70;;;;;;4945336;28;89849;-46
2022/08/10 00:05:04;;;;;;;62.40;51.15;;;26.20;52.80;;;;;;4943321;28;90819;-47
2022/08/10 00:07:30;;;;;;;63.30;51.17;;;26.10;52.80;;;;;;4945799;28;90734;-47
2022/08/10 00:09:56;;;;;;;62.22;51.17;;;26.10;52.70;;;;;;4949338;28;90266;-47
2022/08/10 00:12:22;;;;;;;62.95;51.13;;;26.10;52.70;;;;;;4939720;28;88999;-47
2022/08/10 00:14:48;;;;;;;62.28;51.30;;;26.10;52.80;;;;;;4937527;28;89878;-49
2022/08/10 00:17:13;;;;;;;61.95;51.05;;;26.10;52.80;;;;;;4952300;28;89701;-49
2022/08/10 00:19:39;;;;;;;62.28;51.22;;;26.10;52.70;;;;;;4943713;28;90571;-50
2022/08/10 00:22:05;;;;;;;62.42;51.33;;;26.10;52.70;;;;;;4952555;28;89858;-48
2022/08/10 00:24:30;;;;;;;62.42;51.30;;;26.10;52.70;;;;;;4946855;28;90213;-46
2022/08/10 00:26:56;;;;;;;63.08;51.22;;;26.10;52.80;;;;;;4949194;28;90434;-48
2022/08/10 00:29:22;;;;;;;61.80;50.88;;;26.10;52.80;;;;;;4935029;28;92572;-45
2022/08/10 00:31:47;;;;;;;62.72;51.13;;;26.10;52.90;;;;;;4947302;28;91884;-46
2022/08/10 00:34:13;;;;;;;62.60;51.10;;;26.10;52.90;;;;;;4949377;28;90241;-50
2022/08/10 00:36:38;;;;;;;63.17;51.40;;;26.00;52.70;;;;;;4943665;28;89683;-45
2022/08/10 00:39:04;;;;;;;62.00;50.92;;;26.00;52.80;;;;;;4941978;28;90263;-48
2022/08/10 00:41:30;;;;;;;63.00;51.42;;;26.10;52.90;;;;;;4944831;28;90257;-45
2022/08/10 00:43:55;;;;;;;63.38;50.83;;;26.00;52.80;;;;;;4933292;28;92007;-45
2022/08/10 00:46:21;;;;;;;62.35;51.20;;;26.00;52.90;;;;;;4939607;28;90877;-48
2022/08/10 00:48:47;;;;;;;62.95;51.25;;;26.00;52.90;;;;;;4956247;28;89756;-46
2022/08/10 00:51:13;;;;;;;61.83;50.92;;;26.00;52.80;;;;;;4942243;28;89531;-46
2022/08/10 00:53:39;;;;;;;62.13;50.85;;;26.00;52.80;;;;;;4948418;28;91506;-45
2022/08/10 00:56:05;;;;;;;62.80;51.05;;;26.00;52.80;;;;;;4936278;28;90101;-46
2022/08/10 00:58:32;;;;;;;61.67;50.90;;;26.00;52.90;;;;;;4945214;28;89996;-45
2022/08/10 01:00:58;;;;;;;62.60;51.30;;;26.00;52.80;;;;;;4952854;28;88829;-48
2022/08/10 01:03:24;;;;;;;63.83;51.08;;;26.00;52.80;;;;;;4945359;28;89838;-46
2022/08/10 01:06:08;;;;;;;62.13;51.05;;;26.00;52.90;;;;;;4946184;28;90124;-47
2022/08/10 01:09:00;;;;;;;62.38;51.13;;;26.00;52.80;;;;;;4952439;28;93723;-48
2022/08/10 01:11:42;;;;;;;62.58;51.50;;;26.00;52.90;;;;;;4945751;28;94256;-48
2022/08/10 01:14:43;;;;;;;61.72;50.85;;;25.90;52.70;;;;;;4945333;28;89923;-45
2022/08/10 01:17:13;;;;;;;;;;;26.00;52.80;;;;;;4943769;28;91331;-47
2022/08/10 01:19:54;;;;;;;62.22;50.83;;;26.00;52.90;;;;;;4958576;28;90947;-46
2022/08/10 01:23:04;;;;;;;61.25;50.72;;;26.00;52.90;;;;;;4948921;28;90093;-47
2022/08/10 01:25:44;;;;;;;61.55;50.75;;;25.90;52.90;;;;;;4906681;28;91297;-44
2022/08/10 01:28:34;;;;;;;62.07;50.83;;;25.90;52.80;;;;;;4941589;28;89046;-48
2022/08/10 01:31:03;;;;;;;62.47;50.85;;;25.90;52.90;;;;;;4944201;28;90436;-45
2022/08/10 01:33:41;;;;;;;62.22;50.72;;;25.90;52.90;;;;;;4951325;28;89611;-45
2022/08/10 01:36:18;;;;;;;63.33;51.00;;;25.90;52.90;;;;;;4945987;28;91319;-49
2022/08/10 01:38:47;;;;;;;61.50;50.70;;;25.90;52.80;;;;;;4948097;28;91433;-47
2022/08/10 01:41:23;;;;;;;61.65;50.95;;;25.90;52.90;;;;;;4948260;28;93918;-45
2022/08/10 01:43:58;;;;;;;61.58;50.72;;;25.90;52.90;;;;;;4951145;28;90046;-47
2022/08/10 01:46:25;;;;;;;61.65;50.90;;;25.90;52.90;;;;;;4949426;28;91275;-45
2022/08/10 01:48:55;;;;;;;61.80;51.03;;;25.90;52.90;;;;;;4950752;28;90043;-44
2022/08/10 01:51:26;;;;;;;61.53;50.87;;;25.90;52.90;;;;;;4950244;28;94110;-46
2022/08/10 01:54:02;;;;;;;61.95;50.95;;;25.80;52.70;;;;;;4945411;28;90482;-46
2022/08/10 01:56:32;;;;;;;62.08;51.05;;;25.80;52.80;;;;;;4944157;28;94819;-45
2022/08/10 01:59:06;;;;;;;61.35;50.58;;;25.80;52.80;;;;;;4944308;28;91030;-46
2022/08/10 02:01:38;;;;;;;61.88;50.95;;;25.80;52.80;;;;;;4943851;28;92628;-46
2022/08/10 02:04:08;;;;;;;61.33;50.65;;;25.80;52.80;;;;;;4955383;28;91310;-45
2022/08/10 02:06:46;;;;;;;61.83;50.75;;;25.80;52.70;;;;;;4942200;28;95494;-45
2022/08/10 02:09:15;;;;;;;61.42;50.72;;;25.80;52.80;;;;;;4945089;28;90412;-47
2022/08/10 02:11:43;;;;;;;61.42;50.72;;;25.80;52.90;;;;;;4943377;28;96075;-46
2022/08/10 02:14:13;;;;;;;61.75;50.83;;;25.80;52.80;;;;;;4949913;28;91670;-46
2022/08/10 02:16:41;;;;;;;61.13;50.80;;;25.80;52.90;;;;;;4955186;28;90222;-46
2022/08/10 02:19:11;;;;;;;60.97;50.58;;;25.80;52.90;;;;;;4937499;28;92890;-46
2022/08/10 02:21:39;;;;;;;61.42;50.85;;;25.70;52.70;;;;;;4946650;28;95457;-45
2022/08/10 02:24:07;;;;;;;61.67;50.95;;;25.80;52.80;;;;;;4956306;28;90114;-47
2022/08/10 02:26:34;;;;;;;61.45;50.67;;;25.80;52.70;;;;;;4952774;28;90979;-44
2022/08/10 02:29:01;;;;;;;61.35;50.80;;;25.80;52.80;;;;;;4941008;28;90871;-47
2022/08/10 02:31:28;;;;;;;61.63;50.80;;;25.80;52.90;;;;;;4944410;28;89530;-46
2022/08/10 02:33:56;;;;;;;62.08;50.78;;;25.80;52.90;;;;;;4949371;28;89701;-47
2022/08/10 02:36:23;;;;;;;61.72;50.83;;;25.70;52.80;;;;;;4949001;28;91621;-48
2022/08/10 02:38:52;;;;;;;61.83;50.85;;;25.70;52.70;;;;;;4942957;28;90038;-46
2022/08/10 02:41:31;;;;;;;61.65;51.00;;;25.70;52.80;;;;;;4952349;28;91925;-48
2022/08/10 02:44:09;;;;;;;61.42;50.85;;;25.70;52.80;;;;;;4950348;28;89297;-46
2022/08/10 02:46:54;;;;;;;61.53;50.85;;;25.70;52.90;;;;;;4954132;28;90101;-45
2022/08/10 02:49:58;;;;;;;61.83;51.03;;;25.70;52.80;;;;;;4954201;28;89970;-46
2022/08/10 02:52:30;;;;;;;61.22;50.58;;;25.70;52.70;;;;;;4947707;28;106353;-45
2022/08/10 02:55:09;;;;;;;60.58;50.45;;;25.70;52.70;;;;;;4948297;28;90237;-46
2022/08/10 02:57:39;;;;;;;61.28;50.75;;;25.70;52.70;;;;;;4943622;28;90801;-45
2022/08/10 03:00:06;;;;;;;61.15;50.75;;;25.70;52.60;;;;;;4944065;28;89884;-47
2022/08/10 03:02:48;;;;;;;61.22;50.72;;;25.70;52.80;;;;;;4944838;28;90155;-49
2022/08/10 03:05:16;;;;;;;61.13;50.75;;;25.70;52.70;;;;;;4942921;28;91326;-46
2022/08/10 03:07:54;;;;;;;61.05;50.75;;;25.60;52.60;;;;;;4950793;28;91679;-45
2022/08/10 03:10:24;;;;;;;61.30;50.70;;;25.60;52.60;;;;;;4943585;28;90486;-45
2022/08/10 03:12:55;;;;;;;61.13;50.55;;;25.60;52.80;;;;;;4954188;28;89677;-45
2022/08/10 03:15:23;;;;;;;61.15;50.70;;;25.60;52.60;;;;;;4947173;28;90042;-46
2022/08/10 03:17:52;;;;;;;61.17;50.67;;;25.60;52.80;;;;;;4946445;28;92294;-45
2022/08/10 03:20:18;;;;;;;61.42;50.67;;;25.60;52.70;;;;;;4952072;28;91812;-46
2022/08/10 03:22:45;;;;;;;61.10;50.72;;;25.60;52.70;;;;;;4945965;28;90113;-46
2022/08/10 03:25:12;;;;;;;61.22;50.72;;;25.60;52.80;;;;;;4939488;28;95245;-45
2022/08/10 03:27:40;;;;;;;60.75;50.53;;;25.60;52.70;;;;;;4940604;28;91000;-47
2022/08/10 03:30:07;;;;;;;61.50;50.53;;;25.60;52.80;;;;;;4934595;28;94436;-46
2022/08/10 03:32:34;;;;;;;61.42;50.50;;;25.60;52.80;;;;;;4941576;28;91733;-45
2022/08/10 03:35:00;;;;;;;60.88;50.45;;;25.60;52.80;;;;;;4946353;28;89320;-47
2022/08/10 03:37:29;;;;;;;61.65;50.83;;;25.60;53.30;;;;;;4949509;28;89727;-47
2022/08/10 03:39:54;;;;;;;61.28;50.70;;;25.60;52.80;;;;;;4946754;28;91616;-49
2022/08/10 03:42:22;;;;;;;60.97;50.63;;;25.60;52.70;;;;;;4946971;28;91782;-46
2022/08/10 03:44:50;;;;;;;61.03;50.70;;;25.60;52.70;;;;;;4946377;28;91254;-47
2022/08/10 03:47:18;;;;;;;60.90;50.53;;;25.60;52.80;;;;;;4944384;28;93721;-48
2022/08/10 03:49:46;;;;;;;61.20;50.65;;;25.60;52.70;;;;;;4948373;28;89891;-46
2022/08/10 03:52:13;;;;;;;61.13;50.53;;;25.60;52.60;;;;;;4947518;28;89847;-47
2022/08/10 03:54:40;;;;;;;61.05;50.42;;;25.60;52.60;;;;;;4945985;28;93094;-45
2022/08/10 03:57:06;;;;;;;60.92;50.53;;;25.50;52.60;;;;;;4945051;28;91702;-47
2022/08/10 03:59:32;;;;;;;61.10;50.63;;;25.60;52.60;;;;;;4945511;28;93086;-49
2022/08/10 04:02:00;;;;;;;62.70;50.65;;;25.50;52.60;;;;;;4941944;28;93760;-45
2022/08/10 04:04:26;;;;;;;60.88;50.55;;;25.60;52.60;;;;;;4937216;28;91141;-46
2022/08/10 04:06:54;;;;;;;60.80;50.53;;;25.50;52.50;;;;;;4938984;28;92359;-47
2022/08/10 04:09:20;;;;;;;60.78;50.35;;;25.50;52.60;;;;;;4948709;28;89975;-47
2022/08/10 04:11:45;;;;;;;60.72;50.55;;;25.50;52.50;;;;;;4951853;28;91606;-45
2022/08/10 04:14:11;;;;;;;61.92;50.70;;;25.50;52.60;;;;;;4925120;28;91262;-45
2022/08/10 04:16:37;;;;;;;60.78;50.60;;;25.50;52.60;;;;;;4947240;28;90906;-48
2022/08/10 04:19:03;;;;;;;61.00;50.45;;;25.50;52.60;;;;;;4951655;28;90253;-45
2022/08/10 04:21:39;;;;;;;60.75;50.55;;;25.50;52.70;;;;;;4939973;28;89819;-46
2022/08/10 04:24:06;;;;;;;61.22;50.55;;;25.50;52.70;;;;;;4940410;28;88932;-49
2022/08/10 04:26:32;;;;;;;60.70;50.55;;;25.50;52.70;;;;;;4946335;28;89877;-47
2022/08/10 04:28:58;;;;;;;61.40;50.72;;;25.50;52.60;;;;;;4938756;28;96319;-46
2022/08/10 04:31:26;;;;;;;60.78;50.60;;;25.50;52.60;;;;;;4947685;28;92918;-46
2022/08/10 04:33:54;;;;;;;60.63;50.35;;;25.40;52.50;;;;;;4952121;28;90037;-48
2022/08/10 04:36:21;;;;;;;60.80;50.53;;;25.40;52.50;;;;;;4953613;28;94750;-47
2022/08/10 04:38:51;;;;;;;61.05;50.47;;;25.40;52.60;;;;;;4950153;28;94820;-47
2022/08/10 04:41:18;;;;;;;60.70;50.50;;;25.40;52.60;;;;;;4948943;28;89962;-46
2022/08/10 04:43:44;;;;;;;61.25;50.60;;;25.40;52.50;;;;;;4949209;28;90092;-46
2022/08/10 04:46:10;;;;;;;60.13;50.17;;;25.40;52.50;;;;;;4953338;28;91766;-46
2022/08/10 04:48:36;;;;;;;61.03;50.50;;;25.40;52.60;;;;;;4944909;28;89765;-50
2022/08/10 04:51:02;;;;;;;61.15;50.75;;;25.40;52.60;;;;;;4944789;28;90579;-46
2022/08/10 04:53:28;;;;;;;60.78;50.60;;;25.40;52.60;;;;;;4957258;28;92169;-44
2022/08/10 04:55:53;;;;;;;60.50;50.33;;;25.40;52.50;;;;;;4948330;28;91660;-47
2022/08/10 04:58:19;;;;;;;60.58;50.30;;;25.40;52.60;;;;;;4951594;28;91095;-47
2022/08/10 05:00:45;;;;;;;60.70;50.55;;;25.40;52.60;;;;;;4947627;28;90151;-47
2022/08/10 05:03:10;;;;;;;61.08;50.38;;;25.40;52.50;;;;;;4948733;28;92067;-46
2022/08/10 05:05:36;;;;;;;60.78;50.40;;;25.40;52.50;;;;;;4948162;28;92199;-45
2022/08/10 05:08:02;;;;;;;60.83;50.35;;;25.40;52.50;;;;;;4945960;28;89958;-46
2022/08/10 05:10:27;;;;;;;61.08;50.58;;;25.40;52.50;;;;;;4957247;28;89556;-44
2022/08/10 05:12:53;;;;;;;60.83;50.40;;;25.40;52.60;;;;;;4949988;28;91200;-48
2022/08/10 05:15:21;;;;;;;60.83;50.67;;;25.40;52.50;;;;;;4946528;28;94859;-45
2022/08/10 05:17:47;;;;;;;60.33;50.35;;;25.40;52.60;;;;;;4945859;28;89865;-45
2022/08/10 05:20:12;;;;;;;60.53;50.35;;;25.40;52.60;;;;;;4951163;28;90833;-44
2022/08/10 05:22:43;;;;;;;60.55;50.20;;;25.40;52.60;;;;;;4950764;28;90538;-47
2022/08/10 05:25:19;;;;;;;60.65;50.40;;;25.40;52.60;;;;;;4949950;28;90137;-45
2022/08/10 05:27:46;;;;;;;61.55;50.33;;;25.40;52.70;;;;;;4944614;28;92184;-45
2022/08/10 05:30:18;;;;;;;60.80;50.35;;;25.30;52.80;;;;;;4958545;28;89450;-48
2022/08/10 05:32:44;;;;;;;60.42;50.25;;;25.40;52.90;;;;;;4947012;28;89589;-47
2022/08/10 05:35:10;;;;;;;60.67;50.35;;;25.30;52.90;;;;;;4948227;28;92323;-45
2022/08/10 05:37:36;;;;;;;60.20;50.25;;;25.30;52.90;;;;;;4953595;28;90429;-48
2022/08/10 05:40:04;;;;;;;61.15;50.65;;;25.30;53.00;;;;;;4949581;28;90606;-47
2022/08/10 05:42:30;;;;;;;61.00;50.65;;;25.30;53.10;;;;;;4954028;28;90115;-47
2022/08/10 05:44:56;;;;;;;61.15;50.42;;;25.30;53.00;;;;;;4943173;28;91527;-47
2022/08/10 05:47:22;;;;;;;60.42;50.30;;;25.30;53.00;;;;;;4944417;28;93048;-44
2022/08/10 05:49:49;;;;;;;60.78;50.85;;;25.30;52.00;;;;;;4956729;28;89809;-45
2022/08/10 05:52:16;;;;;;;61.17;50.92;;;25.20;51.60;;;;;;4951661;28;90015;-45
2022/08/10 05:54:42;;;;;;;61.42;50.78;;;25.10;52.00;;;;;;4941865;28;90403;-48
2022/08/10 05:57:09;;;;;;;60.58;50.88;;;25.00;52.10;;;;;;4952545;28;89978;-44
2022/08/10 05:59:38;;;;;;;62.08;51.25;;;25.00;53.00;;;;;;4948099;28;89417;-45
2022/08/10 06:02:06;;;;;;;61.75;51.25;;;24.90;52.70;;;;;;4956807;28;88956;-44
2022/08/10 06:04:37;;;;;;;61.28;51.13;;;25.00;52.80;;;;;;4939767;28;91254;-43
2022/08/10 06:07:03;;;;;;;;;;;25.10;52.40;;;;;;4945459;28;90810;-45
2022/08/10 06:09:30;;;;;;;60.97;51.05;;;25.20;52.30;;;;;;4955852;28;91132;-45
2022/08/10 06:11:58;;;;;;;61.60;50.97;;;25.10;52.20;;;;;;4950121;28;90002;-48
2022/08/10 06:17:30;;;;;;;61.95;51.10;;;25.10;52.30;;;;;;4907159;28;89893;-46
2022/08/10 06:19:57;;;;;;;60.60;50.75;;;25.20;52.30;;;;;;4943406;28;90867;-49
2022/08/10 06:22:25;;;;;;;62.38;51.00;;;25.10;52.30;;;;;;4955272;28;89750;-45
2022/08/10 06:24:52;;;;;;;61.88;51.08;;;25.10;52.30;;;;;;4944830;28;91231;-44
2022/08/10 06:27:18;;;;;;;61.80;50.80;;;25.10;52.20;;;;;;4955221;28;91030;-46
2022/08/10 06:29:45;;;;;;;62.03;51.20;;;25.10;52.20;;;;;;4945295;28;90146;-43
2022/08/10 06:32:13;;;;;;;61.65;51.13;;;25.20;52.20;;;;;;4953245;28;91220;-47
2022/08/10 06:34:45;;;;;;;61.17;51.03;;;25.10;52.20;;;;;;4945704;28;90389;-44
2022/08/10 06:37:13;;;;;;;64.22;51.03;;;25.20;52.20;;;;;;4948846;28;90353;-44
2022/08/10 06:39:39;;;;;;;62.05;51.15;;;25.20;52.20;;;;;;4950267;28;93015;-48
2022/08/10 06:42:14;;;;;;;61.58;51.13;;;25.20;52.00;;;;;;4952374;28;90311;-44
2022/08/10 06:44:55;;;;;;;61.40;50.67;;;25.20;52.10;;;;;;4944945;28;90196;-46
2022/08/10 06:47:43;;;;;;;61.50;51.00;;;25.20;52.30;;;;;;4941101;28;90756;-46
2022/08/10 06:50:20;;;;;;;61.20;51.00;;;25.20;52.00;;;;;;4948087;28;89634;-46
2022/08/10 06:52:48;;;;;;;62.00;51.00;;;25.20;52.00;;;;;;4948541;28;89078;-45
2022/08/10 06:55:14;;;;;;;62.05;51.03;;;25.30;52.00;;;;;;4943150;28;90073;-46
2022/08/10 06:57:41;;;;;;;61.35;50.75;;;25.20;51.90;;;;;;4954136;28;89869;-45
2022/08/10 07:00:08;;;;;;;63.33;51.10;;;25.30;52.00;;;;;;4933706;28;94468;-43
2022/08/10 07:03:08;;;;;;;62.40;51.20;;;25.30;51.90;;;;;;4950755;28;89653;-45
2022/08/10 07:05:39;;;;;;;62.65;50.78;;;25.30;51.90;;;;;;4910199;28;91773;-47
2022/08/10 07:08:07;;;;;;;61.83;51.13;;;25.30;51.90;;;;;;4947614;28;90490;-45
2022/08/10 07:10:35;;;;;;;62.08;51.05;;;25.30;51.80;;;;;;4947563;28;90597;-43
2022/08/10 07:13:02;;;;;;;61.90;51.40;;;25.30;51.80;;;;;;4947997;28;90510;-44
2022/08/10 07:15:29;;;;;;;62.58;50.88;;;25.30;51.80;;;;;;4949255;28;90273;-45
2022/08/10 07:17:57;;;;;;;61.33;50.97;;;25.30;51.80;;;;;;4950668;28;89868;-47
2022/08/10 07:20:24;;;;;;;62.65;51.08;;;25.40;51.80;;;;;;4953314;28;90006;-46
2022/08/10 07:22:52;;;;;;;62.50;50.88;;;25.40;51.70;;;;;;4959735;28;90143;-44
2022/08/10 07:25:24;;;;;;;62.50;50.92;;;25.40;51.70;;;;;;4944489;28;91673;-45
2022/08/10 07:27:51;;;;;;;61.75;50.90;;;25.40;51.70;;;;;;4947344;28;93843;-46
2022/08/10 07:30:17;;;;;;;62.45;50.85;;;25.40;51.60;;;;;;4951917;28;95951;-45
2022/08/10 07:32:46;;;;;;;61.70;51.20;;;25.40;51.60;;;;;;4947705;28;89494;-45
2022/08/10 07:35:15;;;;;;;62.72;51.15;;;25.40;51.50;;;;;;4953704;28;94108;-49
2022/08/10 07:37:46;;;;;;;61.40;51.05;;;25.40;51.40;;;;;;4950951;28;90565;-44
2022/08/10 07:40:14;;;;;;;61.83;51.15;;;25.40;51.40;;;;;;4943530;28;92515;-47
2022/08/10 07:42:42;;;;;;;61.67;51.38;;;25.50;51.40;;;;;;4950587;28;89244;-43
2022/08/10 07:45:08;;;;;;;63.75;51.20;;;25.50;51.30;;;;;;4952398;28;91738;-43
2022/08/10 07:47:45;;;;;;;61.83;51.20;;;25.50;51.30;;;;;;4953637;28;90145;-44
2022/08/10 07:50:14;;;;;;;61.60;51.13;;;25.50;51.30;;;;;;4948336;28;90959;-43
2022/08/10 07:52:42;;;;;;;62.72;51.20;;;25.50;51.20;;;;;;4958041;28;90372;-44
2022/08/10 07:55:13;;;;;;;63.30;51.55;;;25.60;51.20;;;;;;4951227;28;91817;-47
2022/08/10 07:57:41;;;;;;;61.85;51.45;;;25.60;51.10;;;;;;4944500;28;93062;-44
2022/08/10 08:00:11;;;;;;;62.03;51.25;;;25.60;51.00;;;;;;4947837;28;89922;-43
2022/08/10 08:03:06;;;;;;;61.70;51.10;;;25.60;50.90;;;;;;4946635;28;90066;-47
2022/08/10 08:05:32;;;;;;;61.83;51.55;;;25.70;50.90;;;;;;4944199;28;89749;-47
2022/08/10 08:08:01;;;;;;;62.55;51.63;;;25.60;50.90;;;;;;4952965;28;91798;-45
2022/08/10 08:10:28;;;;;;;62.25;51.20;;;25.70;50.90;;;;;;4945253;28;91945;-45
2022/08/10 08:12:56;;;;;;;62.88;51.25;;;25.70;50.90;;;;;;4945892;28;94105;-46
2022/08/10 08:15:24;;;;;;;61.60;51.08;;;25.70;50.90;;;;;;4949878;28;90697;-47
2022/08/10 08:17:52;;;;;;;62.47;51.22;;;25.70;50.90;;;;;;4954611;28;90635;-46
2022/08/10 08:20:19;;;;;;;62.83;51.25;;;25.70;50.80;;;;;;4953026;28;89888;-46
2022/08/10 08:22:47;;;;;;;61.78;51.30;;;25.70;50.70;;;;;;4954092;28;90758;-45
2022/08/10 08:25:15;;;;;;;62.83;51.38;;;25.80;50.80;;;;;;4956063;28;90102;-45
2022/08/10 08:27:43;;;;;;;61.42;51.08;;;25.80;50.80;;;;;;4951828;28;89913;-44
2022/08/10 08:30:09;;;;;;;62.85;51.33;;;25.80;50.70;;;;;;4948969;28;90187;-46
2022/08/10 08:33:08;;;;;;;62.10;51.33;;;25.80;50.60;;;;;;4949432;28;89190;-43
2022/08/10 08:35:34;;;;;;;62.72;51.63;;;25.80;50.50;;;;;;4947099;28;89535;-48
2022/08/10 08:38:02;;;;;;;63.97;51.58;;;25.90;50.60;;;;;;4961609;28;89829;-45
2022/08/10 08:40:36;;;;;;;62.80;51.47;;;25.90;50.50;;;;;;4945428;28;90813;-47
2022/08/10 08:43:12;;;;;;;62.25;51.65;;;25.90;50.40;;;;;;4952165;28;89785;-47
2022/08/10 08:46:17;;;;;;;62.15;51.30;;;26.00;50.40;;;;;;4953553;28;89479;-47
2022/08/10 08:49:07;;;;;;;62.72;51.47;;;26.00;50.40;;;;;;4945302;28;92686;-44
2022/08/10 08:51:51;;;;;;;62.30;51.75;;;26.00;50.90;;;;;;4944864;28;89596;-43
2022/08/10 08:54:45;;;;;;;62.00;51.45;;;26.00;50.20;;;;;;4949653;28;90001;-49
2022/08/10 08:57:30;;;;;;;62.85;51.65;;;26.00;50.20;;;;;;4950132;28;90849;-47
2022/08/10 09:00:31;;;;;;;62.97;51.58;;;26.10;50.30;;;;;;4949193;28;91781;-45
2022/08/10 09:03:18;;;;;;;63.65;51.40;;;26.10;50.20;;;;;;4946377;28;89743;-46
2022/08/10 09:05:49;;;;;;;62.67;51.55;;;26.10;50.20;;;;;;4949095;28;90081;-44
2022/08/10 09:08:42;;;;;;;62.83;51.95;;;26.20;50.20;;;;;;4944218;28;92766;-45
2022/08/10 09:11:37;;;;;;;62.67;51.85;;;26.20;50.20;;;;;;4954657;28;90791;-44
2022/08/10 09:14:29;;;;;;;63.45;51.78;;;26.20;50.20;;;;;;4956513;28;89712;-47
2022/08/10 09:17:03;;;;;;;64.68;51.63;;;26.20;50.20;;;;;;4956871;28;90783;-45
2022/08/10 09:19:49;;;;;;;64.50;51.67;;;26.20;50.10;;;;;;4943048;28;91229;-48
2022/08/10 09:22:18;;;;;;;63.03;51.75;;;26.20;50.10;;;;;;4945600;28;89944;-48
2022/08/10 09:25:13;;;;;;;63.05;51.67;;;26.20;50.10;;;;;;4944402;28;92588;-44
2022/08/10 09:27:55;;;;;;;63.20;51.88;;;26.30;50.10;;;;;;4949308;28;90353;-43
2022/08/10 09:30:32;;;;;;;63.33;51.83;;;26.30;50.10;;;;;;4946833;28;90002;-46
2022/08/10 09:33:14;;;;;;;63.00;51.70;;;26.40;50.10;;;;;;4953759;28;93311;-45
2022/08/10 09:35:54;;;;;;;62.80;51.63;;;26.40;50.00;;;;;;4954322;28;91086;-45
2022/08/10 09:38:43;;;;;;;63.40;51.72;;;26.40;50.00;;;;;;4951465;28;89867;-45
2022/08/10 09:41:29;;;;;;;62.70;51.95;;;26.40;50.00;;;;;;4952750;28;93589;-47
2022/08/10 09:44:32;;;;;;;65.00;51.72;;;26.40;49.90;;;;;;4951793;28;91969;-50
2022/08/10 09:47:35;;;;;;;63.88;51.70;;;26.40;49.90;;;;;;4957235;28;89707;-46
2022/08/10 09:50:22;;;;;;;62.88;52.00;;;26.40;49.80;;;;;;4951693;28;90074;-48
2022/08/10 09:53:09;;;;;;;63.15;51.85;;;26.40;49.80;;;;;;4948346;28;91744;-47
2022/08/10 09:55:57;;;;;;;63.35;52.08;;;26.50;49.90;;;;;;4952316;28;89310;-45
2022/08/10 09:58:48;;;;;;;63.45;51.90;;;26.50;49.90;;;;;;4957311;28;89616;-46
2022/08/10 10:01:21;;;;;;;62.92;51.78;;;26.50;49.80;;;;;;4952434;28;89902;-47
2022/08/10 10:04:12;;;;;;;62.63;51.90;;;26.50;49.70;;;;;;4949731;28;90934;-44
2022/08/10 10:06:50;;;;;;;63.78;52.05;;;26.50;49.70;;;;;;4954568;28;90892;-45
2022/08/10 10:09:29;;;;;;;63.83;51.83;;;26.50;49.60;;;;;;4943836;28;91328;-44
2022/08/10 10:12:25;;;;;;;64.40;51.75;;;26.50;49.60;;;;;;4951547;28;90376;-44
2022/08/10 10:15:19;;;;;;;62.40;51.70;;;26.50;49.60;;;;;;4950173;28;90295;-46
2022/08/10 10:17:57;;;;;;;64.68;52.05;;;26.50;49.50;;;;;;4942088;28;90615;-45
2022/08/10 10:21:01;;;;;;;63.20;52.13;;;26.50;49.50;;;;;;4950515;28;90335;-44
2022/08/10 10:23:35;;;;;;;62.75;51.85;;;26.50;49.50;;;;;;4947916;28;91540;-45
2022/08/10 10:26:38;;;;;;;63.33;52.15;;;26.60;49.40;;;;;;4948299;28;91505;-45
2022/08/10 10:29:29;;;;;;;63.50;52.22;;;26.60;49.40;;;;;;4920881;28;92991;-48
2022/08/10 10:32:37;;;;;;;64.20;52.25;;;26.60;49.30;;;;;;4953182;28;94143;-46
2022/08/10 10:35:15;;;;;;;64.13;52.08;;;26.60;49.30;;;;;;4951895;28;89869;-45
2022/08/10 10:37:44;;;;;;;64.72;52.05;;;26.60;49.20;;;;;;4950127;28;90140;-45
2022/08/10 10:40:12;;;;;;;63.47;51.88;;;26.60;49.10;;;;;;4944996;28;90955;-46
2022/08/10 10:42:43;;;;;;;63.30;52.00;;;26.70;49.20;;;;;;4953921;28;94296;-46
2022/08/10 10:45:43;;;;;;;63.70;52.17;;;26.70;49.20;;;;;;4953124;28;89687;-48
2022/08/10 10:48:21;;;;;;;63.92;52.33;;;26.70;49.10;;;;;;4932977;28;90154;-47
2022/08/10 10:51:17;;;;;;;64.07;52.40;;;26.70;49.10;;;;;;4946885;28;89596;-46
2022/08/10 10:53:50;;;;;;;64.15;52.25;;;26.70;49.10;;;;;;4952488;28;89725;-45
2022/08/10 10:56:25;;;;;;;64.55;52.33;;;26.70;49.00;;;;;;4955030;28;90822;-47
2022/08/10 10:59:06;;;;;;;63.38;52.10;;;26.70;49.10;;;;;;4951400;28;90865;-45
2022/08/10 11:01:59;;;;;;;64.60;52.17;;;26.80;49.00;;;;;;4950859;28;91808;-47
2022/08/10 11:05:06;;;;;;;64.07;52.22;;;26.70;49.00;;;;;;4943886;28;90651;-43
2022/08/10 11:07:43;;;;;;;63.58;52.38;;;26.80;49.00;;;;;;4956445;28;89909;-44
2022/08/10 11:10:17;;;;;;;63.95;52.30;;;26.80;49.00;;;;;;4954081;28;92187;-44
2022/08/10 11:12:45;;;;;;;63.60;52.25;;;26.80;48.90;;;;;;4946671;28;89968;-45
2022/08/10 11:15:14;;;;;;;63.97;52.33;;;26.80;48.90;;;;;;4954279;28;89861;-47
2022/08/10 11:17:50;;;;;;;65.20;52.40;;;26.80;48.90;;;;;;4956471;28;88804;-47
2022/08/10 11:20:25;;;;;;;64.20;52.45;;;26.80;48.80;;;;;;4953865;28;90308;-46
2022/08/10 11:23:03;;;;;;;65.65;52.67;;;26.80;48.80;;;;;;4948620;28;90374;-46
2022/08/10 11:25:30;;;;;;;63.90;52.13;;;26.80;48.80;;;;;;4946707;28;91165;-44
2022/08/10 11:28:22;;;;;;;64.30;52.40;;;26.80;48.70;;;;;;4949433;28;90127;-46
2022/08/10 11:30:54;;;;;;;63.58;52.45;;;26.90;48.80;;;;;;4950863;28;93431;-43
2022/08/10 11:33:25;;;;;;;64.22;52.47;;;26.90;48.70;;;;;;4955184;28;90089;-46
2022/08/10 11:36:02;;;;;;;63.90;52.53;;;26.90;48.60;;;;;;4953034;28;89898;-47
2022/08/10 11:38:56;;;;;;;64.65;52.60;;;26.90;48.70;;;;;;4960746;28;89909;-45
2022/08/10 11:41:48;;;;;;;66.57;52.55;;;26.90;48.70;;;;;;4955929;28;89830;-47
2022/08/10 11:44:37;;;;;;;65.85;52.80;;;26.90;48.70;;;;;;4954747;28;89611;-45
2022/08/10 11:47:22;;;;;;;63.97;52.65;;;26.90;48.60;;;;;;4957048;28;89967;-45
2022/08/10 11:49:54;;;;;;;64.25;52.45;;;26.90;48.60;;;;;;4958851;28;89877;-44
2022/08/10 11:52:19;;;;;;;65.00;52.42;;;27.00;48.60;;;;;;4954242;28;93025;-44
2022/08/10 11:54:54;;;;;;;64.30;52.63;;;26.90;48.50;;;;;;4955468;28;90849;-47
2022/08/10 11:57:27;;;;;;;64.50;52.80;;;27.00;49.20;;;;;;4958596;28;89824;-45
2022/08/10 11:59:56;;;;;;;65.05;52.58;;;27.00;48.50;;;;;;4953722;28;92116;-49
2022/08/10 12:02:28;;;;;;;64.05;52.58;;;27.00;48.50;;;;;;4958036;28;90879;-45
2022/08/10 12:05:37;;;;;;;64.15;52.50;;;27.00;48.50;;;;;;4957206;28;89915;-47
2022/08/10 12:08:03;;;;;;;65.38;52.83;;;27.00;48.40;;;;;;4956165;28;90225;-46
2022/08/10 12:10:30;;;;;;;64.53;52.67;;;27.00;48.40;;;;;;4957000;28;89258;-45
2022/08/10 12:13:39;;;;;;;64.93;52.47;;;27.00;48.30;;;;;;4952873;28;90494;-46
2022/08/10 12:16:14;;;;;;;65.18;52.40;;;27.00;48.40;;;;;;4918936;28;90579;-47
2022/08/10 12:18:52;;;;;;;63.95;52.63;;;27.10;48.30;;;;;;4949413;28;91020;-46
2022/08/10 12:21:22;;;;;;;63.50;52.30;;;27.00;48.30;;;;;;4948100;28;90096;-44
2022/08/10 12:24:00;;;;;;;64.40;52.38;;;26.80;48.40;;;;;;4955682;28;90048;-51
2022/08/10 12:26:36;;;;;;;64.85;52.83;;;26.80;48.60;;;;;;4958338;28;90586;-46
2022/08/10 12:29:27;;;;;;;65.00;53.00;;;27.00;48.70;;;;;;4948502;28;91071;-52
2022/08/10 12:32:04;;;;;;;;;;;27.10;48.80;;;;;;4951630;28;89989;-48
2022/08/10 12:35:28;;;;;;;63.88;52.53;;;27.10;49.00;;;;;;4959085;28;91019;-51
2022/08/10 12:38:21;;;;;;;64.63;52.60;;;27.10;49.10;;;;;;4915801;28;91112;-48
2022/08/10 12:40:54;;;;;;;64.07;52.63;;;27.10;49.20;;;;;;4950128;28;91014;-52
2022/08/10 12:43:31;;;;;;;65.32;52.92;;;27.10;49.20;;;;;;4955359;28;90749;-46
2022/08/10 12:46:02;;;;;;;64.65;53.00;;;27.20;49.30;;;;;;4949993;28;93029;-51
2022/08/10 12:48:28;;;;;;;64.68;52.72;;;27.10;49.40;;;;;;4953922;28;90249;-51
2022/08/10 12:51:15;;;;;;;64.47;52.90;;;27.20;49.50;;;;;;4954050;28;89880;-50
2022/08/10 12:53:59;;;;;;;64.70;53.08;;;27.20;49.40;;;;;;4952108;28;89963;-48
2022/08/10 12:56:30;;;;;;;64.18;52.75;;;27.20;49.50;;;;;;4948861;28;92770;-50
2022/08/10 12:58:57;;;;;;;65.38;53.13;;;27.20;49.60;;;;;;4957978;28;89640;-46
2022/08/10 13:01:26;;;;;;;65.50;52.85;;;27.20;49.50;;;;;;4955133;28;90990;-50
2022/08/10 13:03:57;;;;;;;64.28;52.72;;;27.20;49.60;;;;;;4951130;28;93433;-48
2022/08/10 13:06:24;;;;;;;65.20;53.45;;;27.30;48.10;;;;;;4947730;28;90384;-47